| Date | Time | Temp. (oF) | Dew Point (oF) | Rel. Hum. (%) | Press. (in.) | Wind Dir. | Wind Speed (mph) | Hourly Rainfall (in.) |
|
|---|---|---|---|---|---|---|---|---|---|
| 1 | 10/16 | 00:00 | 51 | 40 | 67 | 29.90 | S | 3 | 0.00 |
| 2 | 10/15 | 23:00 | 51 | 39 | 65 | 29.91 | S | 4 | 0.00 |
| 3 | 10/15 | 22:00 | 51 | 40 | 66 | 29.91 | S | 5 | 0.00 |
| 4 | 10/15 | 21:00 | 52 | 40 | 66 | 29.91 | SSW | 2 | 0.00 |
| 5 | 10/15 | 20:00 | 53 | 40 | 63 | 29.91 | SSW | 0 | 0.00 |
| 6 | 10/15 | 19:00 | 56 | 39 | 55 | 29.90 | S | 0 | 0.00 |
| 7 | 10/15 | 18:00 | 61 | 39 | 45 | 29.90 | SSW | 2 | 0.00 |
| 8 | 10/15 | 17:00 | 63 | 39 | 42 | 29.89 | WSW | 2 | 0.00 |
| 9 | 10/15 | 16:00 | 63 | 38 | 41 | 29.90 | SSW | 5 | 0.00 |
| 10 | 10/15 | 15:00 | 63 | 40 | 44 | 29.91 | W | 7 | 0.00 |
| 11 | 10/15 | 14:00 | 62 | 40 | 45 | 29.94 | SW | 6 | 0.00 |
| 12 | 10/15 | 13:00 | 61 | 39 | 46 | 29.97 | SW | 3 | 0.00 |
| 13 | 10/15 | 12:00 | 59 | 41 | 53 | 29.98 | NE | 5 | 0.00 |
| 14 | 10/15 | 11:00 | 58 | 41 | 54 | 29.99 | NE | 4 | 0.00 |
| 15 | 10/15 | 10:00 | 55 | 43 | 65 | 30.00 | W | 6 | 0.00 |
| 16 | 10/15 | 09:00 | 50 | 44 | 82 | 29.99 | SSE | 1 | 0.00 |
| 17 | 10/15 | 08:00 | 43 | 39 | 86 | 29.96 | S | 0 | 0.00 |
| 18 | 10/15 | 07:00 | 43 | 38 | 84 | 29.93 | SSW | 0 | 0.00 |
| 19 | 10/15 | 06:00 | 45 | 39 | 81 | 29.92 | W | 0 | 0.00 |
| 20 | 10/15 | 05:00 | 47 | 41 | 81 | 29.91 | WNW | 1 | 0.00 |
| 21 | 10/15 | 04:00 | 47 | 40 | 77 | 29.88 | SW | 0 | 0.00 |
| 22 | 10/15 | 03:00 | 50 | 41 | 72 | 29.88 | SW | 0 | 0.00 |
| 23 | 10/15 | 02:00 | 52 | 42 | 70 | 29.86 | WNW | 2 | 0.00 |
| 24 | 10/15 | 01:00 | 54 | 44 | 69 | 29.84 | SW | 0 | 0.00 |